createdAt,value
2019-02-26T00:00:36.180Z,7.97
2019-02-26T00:05:32.914Z,8.40
2019-02-26T00:10:29.029Z,6.40
2019-02-26T00:15:23.361Z,6.50
2019-02-26T00:20:18.006Z,9.20
2019-02-26T00:25:15.143Z,7.97
2019-02-26T00:30:15.729Z,7.67
2019-02-26T00:35:10.103Z,7.17
2019-02-26T00:40:09.572Z,6.90
2019-02-26T00:45:07.408Z,8.13
2019-02-26T00:50:00.805Z,7.23
2019-02-26T00:54:57.589Z,7.87
2019-02-26T00:59:51.725Z,7.87
2019-02-26T01:04:48.154Z,8.50
2019-02-26T01:09:42.726Z,8.57
2019-02-26T01:14:39.061Z,8.13
2019-02-26T01:19:34.196Z,7.60
2019-02-26T01:24:30.572Z,8.33
2019-02-26T01:29:27.794Z,7.53
2019-02-26T01:34:22.685Z,7.67
2019-02-26T01:39:19.237Z,7.70
2019-02-26T01:44:13.588Z,7.47
2019-02-26T01:49:08.185Z,7.50
2019-02-26T01:54:02.754Z,7.77
2019-02-26T01:59:02.092Z,7.57
2019-02-26T02:03:56.026Z,7.47
2019-02-26T02:08:50.655Z,7.47
2019-02-26T02:13:46.434Z,8.50
2019-02-26T02:18:45.993Z,7.67
2019-02-26T02:23:37.937Z,7.70
2019-02-26T02:28:33.707Z,8.67
2019-02-26T02:33:30.015Z,8.03
2019-02-26T02:38:25.217Z,7.60
2019-02-26T02:43:22.948Z,7.90
2019-02-26T02:48:16.155Z,7.27
2019-02-26T02:53:10.749Z,6.97
2019-02-26T02:58:05.367Z,6.93
2019-02-26T03:02:59.950Z,7.30
2019-02-26T03:07:56.365Z,6.97
2019-02-26T03:12:53.875Z,7.23
2019-02-26T03:17:47.301Z,7.40
2019-02-26T03:22:45.301Z,6.47
2019-02-26T03:27:40.605Z,6.80
2019-02-26T03:32:36.590Z,7.40
2019-02-26T03:37:31.891Z,7.47
2019-02-26T03:42:27.146Z,7.83
2019-02-26T03:47:21.772Z,8.03
2019-02-26T03:52:16.392Z,7.83
2019-02-26T03:57:11.493Z,8.20
2019-02-26T04:02:09.341Z,8.27
2019-02-26T04:07:07.187Z,8.23
2019-02-26T04:12:00.683Z,8.40
2019-02-26T04:16:57.613Z,8.57
2019-02-26T04:22:26.530Z,8.17
2019-02-26T04:27:48.438Z,8.63
2019-02-26T04:32:53.288Z,10.37
2019-02-26T04:38:18.245Z,10.47
2019-02-26T04:43:27.909Z,8.67
2019-02-26T04:48:29.134Z,9.43
2019-02-26T04:53:25.775Z,8.90
2019-02-26T04:58:20.756Z,8.87
2019-02-26T05:03:18.107Z,9.23
2019-02-26T05:08:14.744Z,9.33
2019-02-26T05:13:09.650Z,9.13
2019-02-26T05:18:04.604Z,8.70
2019-02-26T05:23:01.056Z,10.23
2019-02-26T05:27:55.497Z,10.20
2019-02-26T05:32:51.970Z,9.77
2019-02-26T05:37:46.390Z,10.93
2019-02-26T05:42:41.019Z,10.30
2019-02-26T05:47:35.606Z,10.80
2019-02-26T05:52:32.925Z,10.87
2019-02-26T05:57:32.392Z,11.63
2019-02-26T06:02:24.676Z,11.43
2019-02-26T06:07:22.044Z,11.83
2019-02-26T06:12:15.445Z,12.63
2019-02-26T06:17:12.515Z,13.63
2019-02-26T06:22:06.360Z,11.90
2019-02-26T06:27:00.949Z,11.83
2019-02-26T06:31:58.656Z,13.00
2019-02-26T06:36:57.840Z,11.83
2019-02-26T06:41:52.419Z,11.30
2019-02-26T06:46:47.029Z,13.80
2019-02-26T06:51:42.974Z,14.87
2019-02-26T06:56:43.275Z,14.27
2019-02-26T07:01:37.362Z,13.77
2019-02-26T07:06:33.141Z,14.37
2019-02-26T07:11:30.571Z,17.10
2019-02-26T07:16:30.575Z,15.73
2019-02-26T07:21:25.557Z,14.77
2019-02-26T07:26:20.892Z,15.68
2019-02-26T07:31:16.657Z,13.80
2019-02-26T07:36:11.254Z,14.07
2019-02-26T07:41:06.188Z,13.37
2019-02-26T07:46:05.069Z,14.37
2019-02-26T07:50:59.729Z,13.97
2019-02-26T07:55:56.332Z,15.17
2019-02-26T08:00:52.258Z,14.17
2019-02-26T08:05:46.979Z,14.47
2019-02-26T08:10:42.838Z,13.37
2019-02-26T08:15:39.789Z,15.03
2019-02-26T08:20:37.508Z,14.47
2019-02-26T08:25:31.774Z,14.23
2019-02-26T08:30:26.389Z,13.87
2019-02-26T08:35:21.151Z,14.07
2019-02-26T08:40:16.526Z,14.53
2019-02-26T08:45:26.355Z,14.40
2019-02-26T08:50:23.943Z,14.43
2019-02-26T08:55:22.269Z,14.30
2019-02-26T09:00:25.399Z,14.30
2019-02-26T09:05:23.963Z,15.23
2019-02-26T09:10:23.828Z,14.70
2019-02-26T09:15:22.398Z,13.63
2019-02-26T09:20:19.355Z,14.17
2019-02-26T09:25:15.769Z,13.63
2019-02-26T09:30:16.185Z,14.40
2019-02-26T09:35:25.239Z,13.23
2019-02-26T09:40:23.645Z,13.63
2019-02-26T09:45:30.102Z,13.70
2019-02-26T09:50:25.631Z,13.43
2019-02-26T09:55:22.977Z,14.33
2019-02-26T10:00:22.871Z,17.37
2019-02-26T10:05:18.289Z,15.70
2019-02-26T10:10:21.232Z,12.50
2019-02-26T10:15:19.340Z,11.20
2019-02-26T10:20:28.615Z,11.80
2019-02-26T10:25:23.412Z,11.90
2019-02-26T10:30:22.764Z,10.50
2019-02-26T10:35:32.492Z,11.40
2019-02-26T10:40:19.623Z,12.30
2019-02-26T10:45:29.057Z,13.40
2019-02-26T10:50:31.645Z,12.97
2019-02-26T10:55:31.258Z,13.17
2019-02-26T11:00:32.226Z,11.70
2019-02-26T11:05:26.455Z,12.30
2019-02-26T11:10:23.207Z,12.60
2019-02-26T11:15:26.986Z,11.30
2019-02-26T11:20:31.007Z,11.30
2019-02-26T11:25:31.390Z,10.40
2019-02-26T11:30:30.262Z,10.20
2019-02-26T11:35:25.402Z,8.57
2019-02-26T11:40:25.293Z,9.50
2019-02-26T11:45:24.718Z,7.60
2019-02-26T11:50:27.098Z,6.13
2019-02-26T11:55:18.537Z,6.40
2019-02-26T12:00:42.290Z,7.97
2019-02-26T12:05:38.902Z,6.37
2019-02-26T12:10:34.984Z,4.70
2019-02-26T12:15:30.226Z,4.20
2019-02-26T12:20:26.304Z,4.10
2019-02-26T12:25:25.753Z,5.47
2019-02-26T12:30:26.223Z,4.63
2019-02-26T12:35:21.081Z,4.97
2019-02-26T12:40:19.365Z,5.80
2019-02-26T12:45:17.452Z,6.20
2019-02-26T12:50:18.509Z,6.37
2019-02-26T12:55:15.636Z,6.23
2019-02-26T13:00:19.921Z,5.80
2019-02-26T13:05:17.443Z,6.13
2019-02-26T13:10:28.174Z,6.67
2019-02-26T13:15:23.575Z,6.63
2019-02-26T13:20:30.126Z,5.90
2019-02-26T13:25:27.549Z,5.90
2019-02-26T13:30:27.567Z,7.10
2019-02-26T13:35:22.796Z,8.43
2019-02-26T13:40:26.213Z,8.87
2019-02-26T13:45:23.905Z,8.43
2019-02-26T13:50:25.385Z,9.13
2019-02-26T13:55:20.036Z,7.00
2019-02-26T14:00:23.563Z,8.10
2019-02-26T14:05:19.489Z,7.30
2019-02-26T14:10:20.418Z,8.47
2019-02-26T14:15:27.409Z,7.90
2019-02-26T14:20:23.108Z,7.57
2019-02-26T14:25:19.159Z,8.57
2019-02-26T14:30:23.080Z,8.27
2019-02-26T14:35:17.952Z,9.30
2019-02-26T14:40:15.746Z,9.40
2019-02-26T14:45:22.714Z,9.60
2019-02-26T14:50:23.073Z,10.47
2019-02-26T14:55:18.193Z,8.90
2019-02-26T15:00:36.030Z,9.30
2019-02-26T15:05:31.296Z,9.47
2019-02-26T15:10:26.166Z,8.60
2019-02-26T15:15:21.954Z,9.40
2019-02-26T15:20:22.452Z,10.58
2019-02-26T15:25:23.945Z,10.73
2019-02-26T15:30:20.761Z,10.13
2019-02-26T15:35:15.529Z,11.60
2019-02-26T15:40:16.406Z,11.70
2019-02-26T15:45:17.843Z,12.80
2019-02-26T15:50:21.501Z,10.97
2019-02-26T15:55:22.163Z,12.30
2019-02-26T16:00:25.547Z,12.87
2019-02-26T16:05:21.938Z,12.33
2019-02-26T16:10:16.899Z,13.17
2019-02-26T16:15:18.736Z,12.57
2019-02-26T16:20:17.105Z,12.67
2019-02-26T16:25:12.321Z,12.87
2019-02-26T16:30:14.764Z,13.03
2019-02-26T16:35:09.666Z,12.03
2019-02-26T16:40:06.335Z,12.60
2019-02-26T16:45:01.671Z,11.97
2019-02-26T16:49:58.669Z,12.70
2019-02-26T16:54:52.730Z,13.00
2019-02-26T16:59:47.361Z,12.73
2019-02-26T17:04:42.407Z,13.20
2019-02-26T17:09:37.087Z,14.47
2019-02-26T17:14:31.768Z,13.93
2019-02-26T17:19:26.560Z,14.57
2019-02-26T17:24:21.389Z,15.33
2019-02-26T17:29:16.890Z,15.33
2019-02-26T17:34:12.446Z,15.73
2019-02-26T17:39:09.159Z,15.30
2019-02-26T17:44:03.751Z,14.93
2019-02-26T17:48:58.367Z,16.47
2019-02-26T17:53:53.028Z,16.47
2019-02-26T17:58:49.405Z,16.73
2019-02-26T18:03:45.315Z,16.77
2019-02-26T18:08:40.338Z,15.93
2019-02-26T18:13:34.987Z,16.70
2019-02-26T18:18:29.585Z,19.23
2019-02-26T18:23:24.181Z,14.90
2019-02-26T18:28:18.856Z,15.00
2019-02-26T18:33:13.457Z,15.80
2019-02-26T18:38:08.088Z,15.53
2019-02-26T18:43:02.676Z,16.83
2019-02-26T18:47:57.335Z,17.40
2019-02-26T18:52:52.001Z,17.90
2019-02-26T18:57:46.596Z,17.63
2019-02-26T19:02:42.215Z,17.47
2019-02-26T19:07:37.059Z,16.53
2019-02-26T19:12:31.678Z,16.87
2019-02-26T19:17:26.744Z,17.27
2019-02-26T19:22:21.850Z,17.13
2019-02-26T19:27:16.833Z,16.97
2019-02-26T19:32:15.450Z,16.63
2019-02-26T19:37:09.089Z,19.23
2019-02-26T19:42:03.693Z,17.20
2019-02-26T19:46:59.135Z,18.10
2019-02-26T19:51:53.741Z,16.27
2019-02-26T19:56:48.321Z,18.23
2019-02-26T20:01:42.936Z,18.70
2019-02-26T20:06:37.548Z,18.10
2019-02-26T20:11:32.137Z,19.10
2019-02-26T20:16:27.872Z,17.87
2019-02-26T20:21:23.224Z,16.57
2019-02-26T20:26:17.805Z,18.47
2019-02-26T20:31:12.399Z,16.80
2019-02-26T20:36:07.001Z,15.97
2019-02-26T20:41:01.587Z,18.97
2019-02-26T20:45:56.201Z,48.00
2019-02-26T20:50:53.469Z,25.30
2019-02-26T20:55:52.412Z,20.17
2019-02-26T21:00:43.448Z,18.47
2019-02-26T21:05:38.039Z,19.10
2019-02-26T21:10:33.403Z,18.87
2019-02-26T21:15:28.519Z,20.03
2019-02-26T21:20:23.117Z,19.87
2019-02-26T21:25:17.856Z,20.27
2019-02-26T21:30:18.932Z,20.67
2019-02-26T21:35:14.134Z,20.77
2019-02-26T21:40:15.936Z,20.17
2019-02-26T21:45:18.785Z,20.30
2019-02-26T21:50:17.272Z,19.63
2019-02-26T21:55:14.177Z,19.50
2019-02-26T22:00:23.669Z,17.10
2019-02-26T22:05:18.273Z,17.23
2019-02-26T22:10:19.308Z,16.27
2019-02-26T22:15:18.861Z,16.87
2019-02-26T22:20:23.411Z,18.00
2019-02-26T22:25:17.133Z,17.50
2019-02-26T22:30:22.236Z,16.80
2019-02-26T22:35:15.704Z,17.00
2019-02-26T22:40:15.361Z,15.90
2019-02-26T22:45:13.625Z,17.23
2019-02-26T22:50:14.716Z,19.17
2019-02-26T22:55:17.316Z,18.97
2019-02-26T23:00:48.229Z,18.07
2019-02-26T23:05:41.019Z,18.70
2019-02-26T23:10:35.782Z,18.87
2019-02-26T23:15:31.012Z,18.70
2019-02-26T23:20:25.668Z,17.77
2019-02-26T23:25:20.428Z,18.97
2019-02-26T23:30:15.419Z,18.37
2019-02-26T23:35:14.594Z,18.47
2019-02-26T23:40:12.993Z,17.70
2019-02-26T23:45:13.307Z,18.33
2019-02-26T23:50:10.214Z,19.27
2019-02-26T23:55:07.448Z,18.27
